sensor_id;sensor_type;location;lat;lon;timestamp;temperature;humidity
67192;HTU21D;54120;53.504;49.426;2023-06-10T00:01:18;17.78;69.29
67192;HTU21D;54120;53.504;49.426;2023-06-10T00:03:44;17.73;69.88
67192;HTU21D;54120;53.504;49.426;2023-06-10T00:06:11;17.60;70.72
67192;HTU21D;54120;53.504;49.426;2023-06-10T00:08:37;17.48;69.97
67192;HTU21D;54120;53.504;49.426;2023-06-10T00:11:05;17.47;69.43
67192;HTU21D;54120;53.504;49.426;2023-06-10T00:13:32;17.47;69.23
67192;HTU21D;54120;53.504;49.426;2023-06-10T00:15:58;17.50;68.35
67192;HTU21D;54120;53.504;49.426;2023-06-10T00:18:26;17.52;68.28
67192;HTU21D;54120;53.504;49.426;2023-06-10T00:20:53;17.53;68.30
67192;HTU21D;54120;53.504;49.426;2023-06-10T00:23:21;17.56;67.39
67192;HTU21D;54120;53.504;49.426;2023-06-10T00:25:48;17.61;67.62
67192;HTU21D;54120;53.504;49.426;2023-06-10T00:28:14;17.56;68.46
67192;HTU21D;54120;53.504;49.426;2023-06-10T00:30:41;17.54;69.03
67192;HTU21D;54120;53.504;49.426;2023-06-10T00:33:07;17.54;68.86
67192;HTU21D;54120;53.504;49.426;2023-06-10T00:35:33;17.53;68.39
67192;HTU21D;54120;53.504;49.426;2023-06-10T00:38:00;17.51;68.58
67192;HTU21D;54120;53.504;49.426;2023-06-10T00:40:26;17.40;72.65
67192;HTU21D;54120;53.504;49.426;2023-06-10T00:42:52;17.35;70.31
67192;HTU21D;54120;53.504;49.426;2023-06-10T00:45:19;17.35;70.48
67192;HTU21D;54120;53.504;49.426;2023-06-10T00:47:45;17.32;71.42
67192;HTU21D;54120;53.504;49.426;2023-06-10T00:50:11;17.28;71.32
67192;HTU21D;54120;53.504;49.426;2023-06-10T00:52:38;17.30;71.48
67192;HTU21D;54120;53.504;49.426;2023-06-10T00:55:05;17.33;70.96
67192;HTU21D;54120;53.504;49.426;2023-06-10T00:57:31;17.39;70.97
67192;HTU21D;54120;53.504;49.426;2023-06-10T00:59:58;17.44;71.26
67192;HTU21D;54120;53.504;49.426;2023-06-10T01:02:24;17.48;70.70
67192;HTU21D;54120;53.504;49.426;2023-06-10T01:04:51;17.50;71.06
67192;HTU21D;54120;53.504;49.426;2023-06-10T01:07:36;17.52;72.26
67192;HTU21D;54120;53.504;49.426;2023-06-10T01:10:05;17.46;71.67
67192;HTU21D;54120;53.504;49.426;2023-06-10T01:12:49;17.45;71.66
67192;HTU21D;54120;53.504;49.426;2023-06-10T01:15:20;17.51;71.29
67192;HTU21D;54120;53.504;49.426;2023-06-10T01:20:25;17.63;70.39
67192;HTU21D;54120;53.504;49.426;2023-06-10T01:22:56;17.73;70.05
67192;HTU21D;54120;53.504;49.426;2023-06-10T01:25:24;18.99;65.82
67192;HTU21D;54120;53.504;49.426;2023-06-10T01:31:09;21.18;57.37
67192;HTU21D;54120;53.504;49.426;2023-06-10T01:33:43;20.66;59.05
67192;HTU21D;54120;53.504;49.426;2023-06-10T01:36:13;20.48;59.27
67192;HTU21D;54120;53.504;49.426;2023-06-10T01:38:46;20.43;59.46
67192;HTU21D;54120;53.504;49.426;2023-06-10T01:41:14;20.50;60.14
67192;HTU21D;54120;53.504;49.426;2023-06-10T01:43:43;20.48;59.65
67192;HTU21D;54120;53.504;49.426;2023-06-10T01:46:10;20.56;60.69
67192;HTU21D;54120;53.504;49.426;2023-06-10T01:48:41;20.72;60.93
67192;HTU21D;54120;53.504;49.426;2023-06-10T01:51:08;21.03;59.90
67192;HTU21D;54120;53.504;49.426;2023-06-10T01:53:34;21.15;59.05
67192;HTU21D;54120;53.504;49.426;2023-06-10T01:56:00;21.04;59.96
67192;HTU21D;54120;53.504;49.426;2023-06-10T01:58:27;21.34;58.56
67192;HTU21D;54120;53.504;49.426;2023-06-10T02:00:53;21.85;56.29
67192;HTU21D;54120;53.504;49.426;2023-06-10T02:03:19;22.54;54.96
67192;HTU21D;54120;53.504;49.426;2023-06-10T02:05:45;24.75;48.78
67192;HTU21D;54120;53.504;49.426;2023-06-10T02:08:12;27.46;42.25
67192;HTU21D;54120;53.504;49.426;2023-06-10T02:10:38;29.34;38.06
67192;HTU21D;54120;53.504;49.426;2023-06-10T02:13:04;30.23;36.13
67192;HTU21D;54120;53.504;49.426;2023-06-10T02:15:31;30.51;36.13
67192;HTU21D;54120;53.504;49.426;2023-06-10T02:17:57;31.13;33.97
67192;HTU21D;54120;53.504;49.426;2023-06-10T02:20:23;31.58;32.63
67192;HTU21D;54120;53.504;49.426;2023-06-10T02:22:50;31.61;33.18
67192;HTU21D;54120;53.504;49.426;2023-06-10T02:25:16;31.99;30.98
67192;HTU21D;54120;53.504;49.426;2023-06-10T02:27:42;32.22;30.31
67192;HTU21D;54120;53.504;49.426;2023-06-10T02:30:09;32.26;30.05
67192;HTU21D;54120;53.504;49.426;2023-06-10T02:32:36;32.74;29.12
67192;HTU21D;54120;53.504;49.426;2023-06-10T02:35:03;33.23;28.65
67192;HTU21D;54120;53.504;49.426;2023-06-10T02:37:29;33.63;27.35
67192;HTU21D;54120;53.504;49.426;2023-06-10T02:39:56;33.55;27.94
67192;HTU21D;54120;53.504;49.426;2023-06-10T02:42:22;33.85;27.86
67192;HTU21D;54120;53.504;49.426;2023-06-10T02:44:48;34.41;26.15
67192;HTU21D;54120;53.504;49.426;2023-06-10T02:47:15;34.59;26.29
67192;HTU21D;54120;53.504;49.426;2023-06-10T02:49:41;34.71;25.60
67192;HTU21D;54120;53.504;49.426;2023-06-10T02:52:07;34.97;24.88
67192;HTU21D;54120;53.504;49.426;2023-06-10T02:54:34;35.12;25.13
67192;HTU21D;54120;53.504;49.426;2023-06-10T02:57:01;35.08;25.37
67192;HTU21D;54120;53.504;49.426;2023-06-10T02:59:28;35.26;24.90
67192;HTU21D;54120;53.504;49.426;2023-06-10T03:01:54;36.18;23.96
67192;HTU21D;54120;53.504;49.426;2023-06-10T03:04:20;36.27;23.75
67192;HTU21D;54120;53.504;49.426;2023-06-10T03:06:49;36.23;23.91
67192;HTU21D;54120;53.504;49.426;2023-06-10T03:09:15;36.62;22.98
67192;HTU21D;54120;53.504;49.426;2023-06-10T03:11:42;37.05;22.18
67192;HTU21D;54120;53.504;49.426;2023-06-10T03:14:08;36.68;23.20
67192;HTU21D;54120;53.504;49.426;2023-06-10T03:16:34;37.03;22.88
67192;HTU21D;54120;53.504;49.426;2023-06-10T03:19:01;37.04;22.29
67192;HTU21D;54120;53.504;49.426;2023-06-10T03:21:27;37.08;22.61
67192;HTU21D;54120;53.504;49.426;2023-06-10T03:23:53;37.82;21.77
67192;HTU21D;54120;53.504;49.426;2023-06-10T03:26:19;37.85;21.79
67192;HTU21D;54120;53.504;49.426;2023-06-10T03:28:47;37.51;21.85
67192;HTU21D;54120;53.504;49.426;2023-06-10T03:31:14;37.61;22.27
67192;HTU21D;54120;53.504;49.426;2023-06-10T03:33:42;37.94;21.89
67192;HTU21D;54120;53.504;49.426;2023-06-10T03:36:09;37.91;21.64
67192;HTU21D;54120;53.504;49.426;2023-06-10T03:38:35;38.04;21.44
67192;HTU21D;54120;53.504;49.426;2023-06-10T03:41:02;38.12;21.85
67192;HTU21D;54120;53.504;49.426;2023-06-10T03:43:29;38.07;21.97
67192;HTU21D;54120;53.504;49.426;2023-06-10T03:45:57;38.55;21.00
67192;HTU21D;54120;53.504;49.426;2023-06-10T03:48:23;38.38;21.73
67192;HTU21D;54120;53.504;49.426;2023-06-10T03:50:49;38.56;20.96
67192;HTU21D;54120;53.504;49.426;2023-06-10T03:53:19;38.67;21.37
67192;HTU21D;54120;53.504;49.426;2023-06-10T03:55:45;38.96;20.38
67192;HTU21D;54120;53.504;49.426;2023-06-10T03:58:11;39.24;20.47
67192;HTU21D;54120;53.504;49.426;2023-06-10T04:00:40;40.11;18.98
67192;HTU21D;54120;53.504;49.426;2023-06-10T04:03:11;39.52;19.31
67192;HTU21D;54120;53.504;49.426;2023-06-10T04:05:41;39.17;19.87
67192;HTU21D;54120;53.504;49.426;2023-06-10T04:08:10;38.80;21.50
67192;HTU21D;54120;53.504;49.426;2023-06-10T04:10:36;38.77;20.94
67192;HTU21D;54120;53.504;49.426;2023-06-10T04:13:03;39.14;20.26
67192;HTU21D;54120;53.504;49.426;2023-06-10T04:15:29;39.69;19.94
67192;HTU21D;54120;53.504;49.426;2023-06-10T04:17:58;40.30;18.88
67192;HTU21D;54120;53.504;49.426;2023-06-10T04:20:24;40.43;18.48
67192;HTU21D;54120;53.504;49.426;2023-06-10T04:22:50;40.11;19.09
67192;HTU21D;54120;53.504;49.426;2023-06-10T04:25:16;40.12;18.67
67192;HTU21D;54120;53.504;49.426;2023-06-10T04:27:43;39.47;20.26
67192;HTU21D;54120;53.504;49.426;2023-06-10T04:30:11;39.69;19.48
67192;HTU21D;54120;53.504;49.426;2023-06-10T04:32:37;40.55;18.45
67192;HTU21D;54120;53.504;49.426;2023-06-10T04:35:04;40.66;18.64
67192;HTU21D;54120;53.504;49.426;2023-06-10T04:37:30;40.16;18.97
67192;HTU21D;54120;53.504;49.426;2023-06-10T04:39:56;40.68;18.93
67192;HTU21D;54120;53.504;49.426;2023-06-10T04:42:22;40.73;18.35
67192;HTU21D;54120;53.504;49.426;2023-06-10T04:44:48;40.55;19.27
67192;HTU21D;54120;53.504;49.426;2023-06-10T04:47:14;40.71;19.55
67192;HTU21D;54120;53.504;49.426;2023-06-10T04:49:41;40.10;19.70
67192;HTU21D;54120;53.504;49.426;2023-06-10T04:52:07;39.55;21.20
67192;HTU21D;54120;53.504;49.426;2023-06-10T04:54:33;39.49;20.18
67192;HTU21D;54120;53.504;49.426;2023-06-10T04:56:59;38.75;21.48
67192;HTU21D;54120;53.504;49.426;2023-06-10T04:59:25;39.48;21.37
67192;HTU21D;54120;53.504;49.426;2023-06-10T05:01:52;40.18;19.90
67192;HTU21D;54120;53.504;49.426;2023-06-10T05:04:18;40.40;18.89
67192;HTU21D;54120;53.504;49.426;2023-06-10T05:06:46;40.42;18.99
67192;HTU21D;54120;53.504;49.426;2023-06-10T05:09:13;40.53;18.62
67192;HTU21D;54120;53.504;49.426;2023-06-10T05:11:39;40.42;18.97
67192;HTU21D;54120;53.504;49.426;2023-06-10T05:14:05;40.66;18.67
67192;HTU21D;54120;53.504;49.426;2023-06-10T05:16:31;40.72;19.05
67192;HTU21D;54120;53.504;49.426;2023-06-10T05:18:57;40.13;19.81
67192;HTU21D;54120;53.504;49.426;2023-06-10T05:21:23;40.45;19.05
67192;HTU21D;54120;53.504;49.426;2023-06-10T05:23:49;40.29;19.40
67192;HTU21D;54120;53.504;49.426;2023-06-10T05:26:15;40.67;19.25
67192;HTU21D;54120;53.504;49.426;2023-06-10T05:28:42;40.46;19.00
67192;HTU21D;54120;53.504;49.426;2023-06-10T05:31:08;40.37;18.57
67192;HTU21D;54120;53.504;49.426;2023-06-10T05:33:34;39.76;19.43
67192;HTU21D;54120;53.504;49.426;2023-06-10T05:36:00;40.31;19.03
67192;HTU21D;54120;53.504;49.426;2023-06-10T05:38:26;40.65;18.42
67192;HTU21D;54120;53.504;49.426;2023-06-10T05:40:52;41.05;17.66
67192;HTU21D;54120;53.504;49.426;2023-06-10T05:43:18;40.39;18.69
67192;HTU21D;54120;53.504;49.426;2023-06-10T05:45:44;40.03;18.96
67192;HTU21D;54120;53.504;49.426;2023-06-10T05:48:10;40.55;18.19
67192;HTU21D;54120;53.504;49.426;2023-06-10T05:50:36;40.52;18.10
67192;HTU21D;54120;53.504;49.426;2023-06-10T05:53:05;41.03;17.57
67192;HTU21D;54120;53.504;49.426;2023-06-10T05:55:32;40.75;17.39
67192;HTU21D;54120;53.504;49.426;2023-06-10T05:57:59;40.39;18.81
67192;HTU21D;54120;53.504;49.426;2023-06-10T06:00:28;40.22;17.92
67192;HTU21D;54120;53.504;49.426;2023-06-10T06:02:54;40.28;17.90
67192;HTU21D;54120;53.504;49.426;2023-06-10T06:05:20;40.55;17.75
67192;HTU21D;54120;53.504;49.426;2023-06-10T06:07:46;40.66;17.30
67192;HTU21D;54120;53.504;49.426;2023-06-10T06:10:12;40.02;18.23
67192;HTU21D;54120;53.504;49.426;2023-06-10T06:12:38;40.68;16.52
67192;HTU21D;54120;53.504;49.426;2023-06-10T06:15:04;41.00;16.07
67192;HTU21D;54120;53.504;49.426;2023-06-10T06:17:30;40.43;17.35
67192;HTU21D;54120;53.504;49.426;2023-06-10T06:19:56;40.56;16.44
67192;HTU21D;54120;53.504;49.426;2023-06-10T06:22:22;40.47;16.77
67192;HTU21D;54120;53.504;49.426;2023-06-10T06:24:48;40.44;17.09
67192;HTU21D;54120;53.504;49.426;2023-06-10T06:27:15;39.27;19.24
67192;HTU21D;54120;53.504;49.426;2023-06-10T06:29:41;39.70;17.80
67192;HTU21D;54120;53.504;49.426;2023-06-10T06:32:07;39.82;18.49
67192;HTU21D;54120;53.504;49.426;2023-06-10T06:34:33;40.14;18.03
67192;HTU21D;54120;53.504;49.426;2023-06-10T06:36:59;39.30;18.59
67192;HTU21D;54120;53.504;49.426;2023-06-10T06:39:25;38.99;18.92
67192;HTU21D;54120;53.504;49.426;2023-06-10T06:41:51;38.21;19.70
67192;HTU21D;54120;53.504;49.426;2023-06-10T06:44:17;38.23;20.28
67192;HTU21D;54120;53.504;49.426;2023-06-10T06:46:43;38.67;18.14
67192;HTU21D;54120;53.504;49.426;2023-06-10T06:49:09;38.93;18.39
67192;HTU21D;54120;53.504;49.426;2023-06-10T06:51:35;38.64;18.40
67192;HTU21D;54120;53.504;49.426;2023-06-10T06:54:01;38.49;19.27
67192;HTU21D;54120;53.504;49.426;2023-06-10T06:56:27;38.70;17.99
67192;HTU21D;54120;53.504;49.426;2023-06-10T06:58:53;38.09;18.79
67192;HTU21D;54120;53.504;49.426;2023-06-10T07:01:19;38.55;18.16
67192;HTU21D;54120;53.504;49.426;2023-06-10T07:03:46;38.98;17.82
67192;HTU21D;54120;53.504;49.426;2023-06-10T07:06:12;39.85;16.68
67192;HTU21D;54120;53.504;49.426;2023-06-10T07:08:39;39.62;16.55
67192;HTU21D;54120;53.504;49.426;2023-06-10T07:11:05;37.58;19.41
67192;HTU21D;54120;53.504;49.426;2023-06-10T07:13:31;38.84;18.17
67192;HTU21D;54120;53.504;49.426;2023-06-10T07:15:57;39.42;17.25
67192;HTU21D;54120;53.504;49.426;2023-06-10T07:18:23;38.89;17.68
67192;HTU21D;54120;53.504;49.426;2023-06-10T07:20:49;38.30;19.34
67192;HTU21D;54120;53.504;49.426;2023-06-10T07:23:15;38.33;19.06
67192;HTU21D;54120;53.504;49.426;2023-06-10T07:25:41;38.33;18.91
67192;HTU21D;54120;53.504;49.426;2023-06-10T07:28:07;38.98;17.67
67192;HTU21D;54120;53.504;49.426;2023-06-10T07:30:33;38.40;18.60
67192;HTU21D;54120;53.504;49.426;2023-06-10T07:32:59;37.57;20.45
67192;HTU21D;54120;53.504;49.426;2023-06-10T07:35:26;37.41;20.27
67192;HTU21D;54120;53.504;49.426;2023-06-10T07:37:52;37.80;19.96
67192;HTU21D;54120;53.504;49.426;2023-06-10T07:40:18;37.67;20.14
67192;HTU21D;54120;53.504;49.426;2023-06-10T07:42:44;36.84;21.04
67192;HTU21D;54120;53.504;49.426;2023-06-10T07:45:10;36.44;21.92
67192;HTU21D;54120;53.504;49.426;2023-06-10T07:47:36;35.83;22.53
67192;HTU21D;54120;53.504;49.426;2023-06-10T07:50:02;35.67;24.14
67192;HTU21D;54120;53.504;49.426;2023-06-10T07:52:28;34.29;25.56
67192;HTU21D;54120;53.504;49.426;2023-06-10T07:54:54;33.18;27.84
67192;HTU21D;54120;53.504;49.426;2023-06-10T07:57:20;32.26;29.73
67192;HTU21D;54120;53.504;49.426;2023-06-10T07:59:46;31.52;31.62
67192;HTU21D;54120;53.504;49.426;2023-06-10T08:02:12;31.19;33.11
67192;HTU21D;54120;53.504;49.426;2023-06-10T08:04:38;30.82;33.00
67192;HTU21D;54120;53.504;49.426;2023-06-10T08:07:04;30.61;33.87
67192;HTU21D;54120;53.504;49.426;2023-06-10T08:09:31;30.63;34.95
67192;HTU21D;54120;53.504;49.426;2023-06-10T08:11:57;30.24;35.79
67192;HTU21D;54120;53.504;49.426;2023-06-10T08:14:23;30.56;35.04
67192;HTU21D;54120;53.504;49.426;2023-06-10T08:16:49;30.52;35.33
67192;HTU21D;54120;53.504;49.426;2023-06-10T08:19:15;30.17;36.71
67192;HTU21D;54120;53.504;49.426;2023-06-10T08:21:41;29.60;37.98
67192;HTU21D;54120;53.504;49.426;2023-06-10T08:24:07;29.44;38.11
67192;HTU21D;54120;53.504;49.426;2023-06-10T08:26:33;29.87;38.28
67192;HTU21D;54120;53.504;49.426;2023-06-10T08:28:59;29.77;38.12
67192;HTU21D;54120;53.504;49.426;2023-06-10T08:31:25;29.47;38.56
67192;HTU21D;54120;53.504;49.426;2023-06-10T08:33:51;29.27;39.66
67192;HTU21D;54120;53.504;49.426;2023-06-10T08:36:17;29.83;38.56
67192;HTU21D;54120;53.504;49.426;2023-06-10T08:38:43;30.56;37.65
67192;HTU21D;54120;53.504;49.426;2023-06-10T08:41:09;31.63;35.02
67192;HTU21D;54120;53.504;49.426;2023-06-10T08:43:43;32.03;33.57
67192;HTU21D;54120;53.504;49.426;2023-06-10T08:46:10;31.97;34.13
67192;HTU21D;54120;53.504;49.426;2023-06-10T08:48:42;31.57;33.42
67192;HTU21D;54120;53.504;49.426;2023-06-10T08:51:10;30.62;35.71
67192;HTU21D;54120;53.504;49.426;2023-06-10T08:53:38;30.38;36.18
67192;HTU21D;54120;53.504;49.426;2023-06-10T08:56:09;30.48;34.66
67192;HTU21D;54120;53.504;49.426;2023-06-10T08:58:36;30.39;34.71
67192;HTU21D;54120;53.504;49.426;2023-06-10T09:01:08;29.78;37.83
67192;HTU21D;54120;53.504;49.426;2023-06-10T09:03:37;29.07;39.85
67192;HTU21D;54120;53.504;49.426;2023-06-10T09:06:04;28.69;42.68
67192;HTU21D;54120;53.504;49.426;2023-06-10T09:08:33;28.56;43.08
67192;HTU21D;54120;53.504;49.426;2023-06-10T09:11:00;28.61;42.68
67192;HTU21D;54120;53.504;49.426;2023-06-10T09:13:26;28.56;43.29
67192;HTU21D;54120;53.504;49.426;2023-06-10T09:15:52;28.25;43.84
67192;HTU21D;54120;53.504;49.426;2023-06-10T09:18:18;27.31;44.17
67192;HTU21D;54120;53.504;49.426;2023-06-10T09:20:44;27.00;44.04
67192;HTU21D;54120;53.504;49.426;2023-06-10T09:23:10;26.87;42.76
67192;HTU21D;54120;53.504;49.426;2023-06-10T09:25:37;27.27;43.21
67192;HTU21D;54120;53.504;49.426;2023-06-10T09:28:05;28.06;40.72
67192;HTU21D;54120;53.504;49.426;2023-06-10T09:30:38;28.85;38.85
67192;HTU21D;54120;53.504;49.426;2023-06-10T09:33:11;29.14;36.87
67192;HTU21D;54120;53.504;49.426;2023-06-10T09:35:46;28.89;35.52
67192;HTU21D;54120;53.504;49.426;2023-06-10T09:38:13;28.60;37.21
67192;HTU21D;54120;53.504;49.426;2023-06-10T09:40:53;28.69;36.15
67192;HTU21D;54120;53.504;49.426;2023-06-10T09:43:19;28.75;35.63
67192;HTU21D;54120;53.504;49.426;2023-06-10T09:45:51;28.48;37.83
67192;HTU21D;54120;53.504;49.426;2023-06-10T09:48:21;27.87;38.62
67192;HTU21D;54120;53.504;49.426;2023-06-10T09:50:49;27.26;40.17
67192;HTU21D;54120;53.504;49.426;2023-06-10T09:53:17;26.78;40.94
67192;HTU21D;54120;53.504;49.426;2023-06-10T09:55:44;26.19;41.07
67192;HTU21D;54120;53.504;49.426;2023-06-10T09:58:10;25.73;44.15
67192;HTU21D;54120;53.504;49.426;2023-06-10T10:00:36;25.72;46.19
67192;HTU21D;54120;53.504;49.426;2023-06-10T10:03:02;25.04;49.02
67192;HTU21D;54120;53.504;49.426;2023-06-10T10:05:28;24.92;51.02
67192;HTU21D;54120;53.504;49.426;2023-06-10T10:07:55;24.91;51.98
67192;HTU21D;54120;53.504;49.426;2023-06-10T10:10:22;24.60;53.94
67192;HTU21D;54120;53.504;49.426;2023-06-10T10:12:53;24.20;56.25
67192;HTU21D;54120;53.504;49.426;2023-06-10T10:15:22;23.85;57.33
67192;HTU21D;54120;53.504;49.426;2023-06-10T10:17:53;23.61;58.65
67192;HTU21D;54120;53.504;49.426;2023-06-10T10:20:26;23.44;59.10
67192;HTU21D;54120;53.504;49.426;2023-06-10T10:22:56;23.12;59.93
67192;HTU21D;54120;53.504;49.426;2023-06-10T10:25:26;22.72;61.31
67192;HTU21D;54120;53.504;49.426;2023-06-10T10:28:02;22.75;62.23
67192;HTU21D;54120;53.504;49.426;2023-06-10T10:30:34;22.62;63.43
67192;HTU21D;54120;53.504;49.426;2023-06-10T10:33:09;22.40;64.37
67192;HTU21D;54120;53.504;49.426;2023-06-10T10:35:37;21.99;65.63
67192;HTU21D;54120;53.504;49.426;2023-06-10T10:38:04;21.88;66.46
67192;HTU21D;54120;53.504;49.426;2023-06-10T10:40:30;21.87;66.81
67192;HTU21D;54120;53.504;49.426;2023-06-10T10:42:59;21.60;68.81
67192;HTU21D;54120;53.504;49.426;2023-06-10T10:45:28;21.32;71.00
67192;HTU21D;54120;53.504;49.426;2023-06-10T10:47:55;21.08;72.80
67192;HTU21D;54120;53.504;49.426;2023-06-10T10:50:22;20.44;80.86
67192;HTU21D;54120;53.504;49.426;2023-06-10T10:52:56;19.13;94.88
67192;HTU21D;54120;53.504;49.426;2023-06-10T10:55:23;18.40;97.49
67192;HTU21D;54120;53.504;49.426;2023-06-10T10:58:03;18.06;99.96
67192;HTU21D;54120;53.504;49.426;2023-06-10T11:00:37;18.11;100.28
67192;HTU21D;54120;53.504;49.426;2023-06-10T11:05:40;18.23;98.39
67192;HTU21D;54120;53.504;49.426;2023-06-10T11:08:14;18.48;96.55
67192;HTU21D;54120;53.504;49.426;2023-06-10T11:10:50;18.53;97.33
67192;HTU21D;54120;53.504;49.426;2023-06-10T11:13:19;18.29;97.42
67192;HTU21D;54120;53.504;49.426;2023-06-10T11:15:50;17.76;97.95
67192;HTU21D;54120;53.504;49.426;2023-06-10T11:18:29;17.43;100.53
67192;HTU21D;54120;53.504;49.426;2023-06-10T11:21:02;17.30;101.54
67192;HTU21D;54120;53.504;49.426;2023-06-10T11:31:24;16.91;102.78
67192;HTU21D;54120;53.504;49.426;2023-06-10T11:36:21;17.23;103.79
67192;HTU21D;54120;53.504;49.426;2023-06-10T11:38:48;17.40;104.22
67192;HTU21D;54120;53.504;49.426;2023-06-10T11:41:14;17.50;103.59
67192;HTU21D;54120;53.504;49.426;2023-06-10T11:43:45;17.78;103.76
67192;HTU21D;54120;53.504;49.426;2023-06-10T11:46:13;17.80;103.34
67192;HTU21D;54120;53.504;49.426;2023-06-10T11:48:57;17.85;102.63
67192;HTU21D;54120;53.504;49.426;2023-06-10T11:51:30;17.95;100.98
67192;HTU21D;54120;53.504;49.426;2023-06-10T11:53:56;17.84;101.04
67192;HTU21D;54120;53.504;49.426;2023-06-10T11:56:23;17.89;101.34
67192;HTU21D;54120;53.504;49.426;2023-06-10T11:58:54;17.93;101.15
67192;HTU21D;54120;53.504;49.426;2023-06-10T12:01:22;17.72;99.64
67192;HTU21D;54120;53.504;49.426;2023-06-10T12:03:57;17.70;100.18
67192;HTU21D;54120;53.504;49.426;2023-06-10T12:06:23;17.64;99.48
67192;HTU21D;54120;53.504;49.426;2023-06-10T12:08:50;17.78;99.39
67192;HTU21D;54120;53.504;49.426;2023-06-10T12:11:16;18.02;100.26
67192;HTU21D;54120;53.504;49.426;2023-06-10T12:13:46;17.87;98.83
67192;HTU21D;54120;53.504;49.426;2023-06-10T12:16:16;17.91;96.27
67192;HTU21D;54120;53.504;49.426;2023-06-10T12:18:46;17.92;98.25
67192;HTU21D;54120;53.504;49.426;2023-06-10T12:21:38;18.02;97.60
67192;HTU21D;54120;53.504;49.426;2023-06-10T12:24:08;17.80;96.97
67192;HTU21D;54120;53.504;49.426;2023-06-10T12:26:41;17.75;99.58
67192;HTU21D;54120;53.504;49.426;2023-06-10T12:29:18;17.91;99.55
67192;HTU21D;54120;53.504;49.426;2023-06-10T12:32:03;17.85;98.61
67192;HTU21D;54120;53.504;49.426;2023-06-10T12:34:36;17.75;99.09
67192;HTU21D;54120;53.504;49.426;2023-06-10T12:37:05;17.53;100.39
67192;HTU21D;54120;53.504;49.426;2023-06-10T12:39:32;17.81;102.18
67192;HTU21D;54120;53.504;49.426;2023-06-10T12:41:59;18.00;101.99
67192;HTU21D;54120;53.504;49.426;2023-06-10T12:44:32;18.07;101.93
67192;HTU21D;54120;53.504;49.426;2023-06-10T12:46:59;18.06;100.74
67192;HTU21D;54120;53.504;49.426;2023-06-10T12:49:25;18.17;100.29
67192;HTU21D;54120;53.504;49.426;2023-06-10T12:51:52;18.26;99.62
67192;HTU21D;54120;53.504;49.426;2023-06-10T12:54:19;18.41;98.55
67192;HTU21D;54120;53.504;49.426;2023-06-10T12:56:45;18.69;96.04
67192;HTU21D;54120;53.504;49.426;2023-06-10T12:59:10;19.00;93.04
67192;HTU21D;54120;53.504;49.426;2023-06-10T13:01:37;18.97;89.38
67192;HTU21D;54120;53.504;49.426;2023-06-10T13:04:05;18.98;88.02
67192;HTU21D;54120;53.504;49.426;2023-06-10T13:06:32;19.05;85.48
67192;HTU21D;54120;53.504;49.426;2023-06-10T13:09:03;19.05;83.26
67192;HTU21D;54120;53.504;49.426;2023-06-10T13:11:29;18.97;82.49
67192;HTU21D;54120;53.504;49.426;2023-06-10T13:13:55;18.89;80.78
67192;HTU21D;54120;53.504;49.426;2023-06-10T13:16:21;18.84;81.30
67192;HTU21D;54120;53.504;49.426;2023-06-10T13:18:46;18.84;81.23
67192;HTU21D;54120;53.504;49.426;2023-06-10T13:21:12;18.88;80.09
67192;HTU21D;54120;53.504;49.426;2023-06-10T13:23:38;18.85;80.91
67192;HTU21D;54120;53.504;49.426;2023-06-10T13:26:05;18.81;82.33
67192;HTU21D;54120;53.504;49.426;2023-06-10T13:28:30;18.84;83.33
67192;HTU21D;54120;53.504;49.426;2023-06-10T13:30:57;18.84;83.08
67192;HTU21D;54120;53.504;49.426;2023-06-10T13:33:23;18.80;79.88
67192;HTU21D;54120;53.504;49.426;2023-06-10T13:35:49;18.68;80.51
67192;HTU21D;54120;53.504;49.426;2023-06-10T13:38:15;18.52;80.46
67192;HTU21D;54120;53.504;49.426;2023-06-10T13:40:41;18.38;80.11
67192;HTU21D;54120;53.504;49.426;2023-06-10T13:43:07;18.34;80.40
67192;HTU21D;54120;53.504;49.426;2023-06-10T13:45:35;18.32;79.69
67192;HTU21D;54120;53.504;49.426;2023-06-10T13:48:01;18.61;79.43
67192;HTU21D;54120;53.504;49.426;2023-06-10T13:50:31;18.92;77.22
67192;HTU21D;54120;53.504;49.426;2023-06-10T13:52:57;19.06;75.51
67192;HTU21D;54120;53.504;49.426;2023-06-10T13:55:23;19.17;76.13
67192;HTU21D;54120;53.504;49.426;2023-06-10T13:57:50;19.40;75.15
67192;HTU21D;54120;53.504;49.426;2023-06-10T14:00:17;19.46;74.37
67192;HTU21D;54120;53.504;49.426;2023-06-10T14:02:43;19.53;72.81
67192;HTU21D;54120;53.504;49.426;2023-06-10T14:05:09;19.71;71.86
67192;HTU21D;54120;53.504;49.426;2023-06-10T14:07:34;19.52;71.32
67192;HTU21D;54120;53.504;49.426;2023-06-10T14:10:01;19.52;71.42
67192;HTU21D;54120;53.504;49.426;2023-06-10T14:12:27;19.63;71.08
67192;HTU21D;54120;53.504;49.426;2023-06-10T14:14:53;19.55;70.03
67192;HTU21D;54120;53.504;49.426;2023-06-10T14:17:19;19.45;71.89
67192;HTU21D;54120;53.504;49.426;2023-06-10T14:19:45;19.35;72.24
67192;HTU21D;54120;53.504;49.426;2023-06-10T14:22:11;19.57;71.32
67192;HTU21D;54120;53.504;49.426;2023-06-10T14:24:37;19.60;70.24
67192;HTU21D;54120;53.504;49.426;2023-06-10T14:27:04;19.66;70.87
67192;HTU21D;54120;53.504;49.426;2023-06-10T14:29:30;19.85;70.37
67192;HTU21D;54120;53.504;49.426;2023-06-10T14:31:57;20.07;69.94
67192;HTU21D;54120;53.504;49.426;2023-06-10T14:34:23;20.07;69.55
67192;HTU21D;54120;53.504;49.426;2023-06-10T14:36:54;20.06;71.02
67192;HTU21D;54120;53.504;49.426;2023-06-10T14:39:20;19.95;70.31
67192;HTU21D;54120;53.504;49.426;2023-06-10T14:41:46;20.04;71.17
67192;HTU21D;54120;53.504;49.426;2023-06-10T14:44:13;20.09;71.13
67192;HTU21D;54120;53.504;49.426;2023-06-10T14:46:39;20.22;70.87
67192;HTU21D;54120;53.504;49.426;2023-06-10T14:49:05;20.15;70.81
67192;HTU21D;54120;53.504;49.426;2023-06-10T14:51:31;19.96;71.38
67192;HTU21D;54120;53.504;49.426;2023-06-10T14:53:57;19.75;72.11
67192;HTU21D;54120;53.504;49.426;2023-06-10T14:56:24;19.67;72.97
67192;HTU21D;54120;53.504;49.426;2023-06-10T14:58:51;19.61;71.51
67192;HTU21D;54120;53.504;49.426;2023-06-10T15:01:17;19.43;72.20
67192;HTU21D;54120;53.504;49.426;2023-06-10T15:03:44;19.30;72.21
67192;HTU21D;54120;53.504;49.426;2023-06-10T15:06:10;19.29;71.90
67192;HTU21D;54120;53.504;49.426;2023-06-10T15:08:36;19.30;72.25
67192;HTU21D;54120;53.504;49.426;2023-06-10T15:11:03;19.24;72.36
67192;HTU21D;54120;53.504;49.426;2023-06-10T15:13:29;19.16;72.33
67192;HTU21D;54120;53.504;49.426;2023-06-10T15:15:55;19.16;70.60
67192;HTU21D;54120;53.504;49.426;2023-06-10T15:18:21;19.14;70.52
67192;HTU21D;54120;53.504;49.426;2023-06-10T15:20:47;19.31;69.36